Milanville, Pennsylvania
Current Conditions -  °F | °C
As of 1:35 PM on Sunday 23 Nov 2014 (Local Time) from KMSV Reporting Station
Broken Clouds Broken Clouds  
Wind Chill: 50°   Ceiling: 11000
Heat Index: 50°   Visibility: 10mi
Dew Point: 28°   Wind: 3mph
Humidity: 43%   Direction: 360°N
Pressure: 30.09"   Gusts: NA
Location:  41.67°N, 75.07°W
Report Text: KMSV 231835Z AUTO 36003KT 10SM BKN110 10/M02 A3009 RMK AO1
Loading
Personal Weather Stations






























Interactive Weather Map New forecast layout! Learn more

10-Day Weather Forecast

Advertisements
Track Severe Weather on mobile